Map

Track Data

SID SEASON NUMBER BASIN SUBBASIN NAME ISO_TIME NATURE LAT LON WMO_WIND WMO_PRES WMO_AGENCY TRACK_TYPE DIST2LAND LANDFALL IFLAG USA_AGENCY USA_ATCF_ID USA_LAT USA_LON USA_RECORD USA_STATUS USA_WIND USA_PRES USA_SSHS USA_R34_NE USA_R34_SE USA_R34_SW USA_R34_NW USA_R50_NE USA_R50_SE USA_R50_SW USA_R50_NW USA_R64_NE USA_R64_SE USA_R64_SW USA_R64_NW USA_POCI USA_ROCI USA_RMW USA_EYE TOKYO_LAT TOKYO_LON TOKYO_GRADE TOKYO_WIND TOKYO_PRES TOKYO_R50_DIR TOKYO_R50_LONG TOKYO_R50_SHORT TOKYO_R30_DIR TOKYO_R30_LONG TOKYO_R30_SHORT TOKYO_LAND CMA_LAT CMA_LON CMA_CAT CMA_WIND CMA_PRES HKO_LAT HKO_LON HKO_CAT HKO_WIND HKO_PRES NEWDELHI_LAT NEWDELHI_LON NEWDELHI_GRADE NEWDELHI_WIND NEWDELHI_PRES NEWDELHI_CI NEWDELHI_DP NEWDELHI_POCI REUNION_LAT REUNION_LON REUNION_TYPE REUNION_WIND REUNION_PRES REUNION_TNUM REUNION_CI REUNION_RMW REUNION_R34_NE REUNION_R34_SE REUNION_R34_SW REUNION_R34_NW REUNION_R50_NE REUNION_R50_SE REUNION_R50_SW REUNION_R50_NW REUNION_R64_NE REUNION_R64_SE REUNION_R64_SW REUNION_R64_NW BOM_LAT BOM_LON BOM_TYPE BOM_WIND BOM_PRES BOM_TNUM BOM_CI BOM_RMW BOM_R34_NE BOM_R34_SE BOM_R34_SW BOM_R34_NW BOM_R50_NE BOM_R50_SE BOM_R50_SW BOM_R50_NW BOM_R64_NE BOM_R64_SE BOM_R64_SW BOM_R64_NW BOM_ROCI BOM_POCI BOM_EYE BOM_POS_METHOD BOM_PRES_METHOD NADI_LAT NADI_LON NADI_CAT NADI_WIND NADI_PRES WELLINGTON_LAT WELLINGTON_LON WELLINGTON_WIND WELLINGTON_PRES DS824_LAT DS824_LON DS824_STAGE DS824_WIND DS824_PRES TD9636_LAT TD9636_LON TD9636_STAGE TD9636_WIND TD9636_PRES TD9635_LAT TD9635_LON TD9635_WIND TD9635_PRES TD9635_ROCI NEUMANN_LAT NEUMANN_LON NEUMANN_CLASS NEUMANN_WIND NEUMANN_PRES MLC_LAT MLC_LON MLC_CLASS MLC_WIND MLC_PRES USA_GUST BOM_GUST BOM_GUST_PER REUNION_GUST REUNION_GUST_PER USA_SEAHGT USA_SEARAD_NE USA_SEARAD_SE USA_SEARAD_SW USA_SEARAD_NW STORM_SPEED STORM_DIR
1938279N12141 1938 55 WP MM NOT_NAMED 1938-10-06 09:00:00 NR 12.4000 141.200 main 1590 1590 __________O___ -1 12.4000 141.200 2 22 307
1938279N12141 1938 55 WP MM NOT_NAMED 1938-10-06 12:00:00 NR 13.0547 140.312 main 1595 1517 __________P___ -1 13.0547 140.312 2 21 307
1938279N12141 1938 55 WP MM NOT_NAMED 1938-10-06 15:00:00 NR 13.6864 139.458 main 1519 1445 __________P___ -1 13.6864 139.458 2 20 307
1938279N12141 1938 55 WP MM NOT_NAMED 1938-10-06 18:00:00 NR 14.2746 138.674 main 1448 1382 __________P___ -1 14.2746 138.674 2 18 308
1938279N12141 1938 55 WP MM NOT_NAMED 1938-10-06 21:00:00 NR 14.8000 138.000 main 1382 1339 __________O___ -1 14.8000 138.000 2 15 310
1938279N12141 1938 55 WP MM NOT_NAMED 1938-10-07 00:00:00 NR 15.2484 137.460 main 1339 1298 __________P___ -1 15.2484 137.460 2 13 311
1938279N12141 1938 55 WP MM NOT_NAMED 1938-10-07 03:00:00 NR 15.6251 137.015 main 1298 1267 __________P___ -1 15.6251 137.015 2 11 310
1938279N12141 1938 55 WP MM NOT_NAMED 1938-10-07 06:00:00 NR 15.9393 136.613 main 1267 1237 __________P___ -1 15.9393 136.613 2 10 306
1938279N12141 1938 55 WP MM NOT_NAMED 1938-10-07 09:00:00 NR 16.2000 136.200 main 1237 1195 __________O___ -1 16.2000 136.200 2 11 298
1938279N12141 1938 55 WP MM NOT_NAMED 1938-10-07 12:00:00 NR 16.4422 135.636 main 1185 1145 __________P___ -1 16.4422 135.636 2 12 292
1938279N12141 1938 55 WP MM NOT_NAMED 1938-10-07 15:00:00 NR 16.6335 135.060 main 1145 1106 __________P___ -1 16.6335 135.060 2 11 288
1938279N12141 1938 55 WP MM NOT_NAMED 1938-10-07 18:00:00 NR 16.7829 134.529 main 1097 1064 __________P___ -1 16.7829 134.529 2 10 286
1938279N12141 1938 55 WP MM NOT_NAMED 1938-10-07 21:00:00 NR 16.9000 134.100 main 1064 1046 __________O___ -1 16.9000 134.100 2 7 286
1938279N12141 1938 55 WP MM NOT_NAMED 1938-10-08 00:00:00 NR 16.9662 133.862 main 1051 1033 __________P___ -1 16.9662 133.862 2 4 287
1938279N12141 1938 55 WP MM NOT_NAMED 1938-10-08 03:00:00 NR 17.0113 133.724 main 1033 1029 __________P___ -1 17.0113 133.724 2 3 296
1938279N12141 1938 55 WP MM NOT_NAMED 1938-10-08 06:00:00 NR 17.0758 133.624 main 1029 1026 __________P___ -1 17.0758 133.624 2 3 311
1938279N12141 1938 55 WP MM NOT_NAMED 1938-10-08 09:00:00 NR 17.2000 133.500 main 1026 1020 __________O___ -1 17.2000 133.500 2 5 319
1938279N12141 1938 55 WP MM NOT_NAMED 1938-10-08 12:00:00 NR 17.4555 133.282 main 1027 1016 __________P___ -1 17.4555 133.282 2 7 322
1938279N12141 1938 55 WP MM NOT_NAMED 1938-10-08 15:00:00 NR 17.7698 133.025 main 1018 1004 __________P___ -1 17.7698 133.025 2 8 321
1938279N12141 1938 55 WP MM NOT_NAMED 1938-10-08 18:00:00 NR 18.0991 132.732 main 1004 991 __________P___ -1 18.0991 132.732 2 9 317
1938279N12141 1938 55 WP MM NOT_NAMED 1938-10-08 21:00:00 NR 18.4000 132.400 main 991 966 __________O___ -1 18.4000 132.400 2 8 307
1938279N12141 1938 55 WP MM NOT_NAMED 1938-10-09 00:00:00 NR 18.6111 132.028 main 966 943 __________P___ -1 18.6111 132.028 2 8 298
1938279N12141 1938 55 WP MM NOT_NAMED 1938-10-09 03:00:00 NR 18.7878 131.622 main 943 916 __________P___ -1 18.7878 131.622 2 8 293
1938279N12141 1938 55 WP MM NOT_NAMED 1938-10-09 06:00:00 NR 18.9455 131.206 main 916 896 __________P___ -1 18.9455 131.206 2 8 292
1938279N12141 1938 55 WP MM NOT_NAMED 1938-10-09 09:00:00 NR 19.1000 130.800 main 896 858 __________O___ -1 19.1000 130.800 2 8 293
1938279N12141 1938 55 WP MM NOT_NAMED 1938-10-09 12:00:00 NR 19.2668 130.411 main 858 828 __________P___ -1 19.2668 130.411 2 8 295
1938279N12141 1938 55 WP MM NOT_NAMED 1938-10-09 15:00:00 NR 19.4350 130.040 main 817 789 __________P___ -1 19.4350 130.040 2 8 297
1938279N12141 1938 55 WP MM NOT_NAMED 1938-10-09 18:00:00 NR 19.6106 129.699 main 789 762 __________P___ -1 19.6106 129.699 2 7 301
1938279N12141 1938 55 WP MM NOT_NAMED 1938-10-09 21:00:00 NR 19.8000 129.400 main 762 743 __________O___ -1 19.8000 129.400 2 6 304
1938279N12141 1938 55 WP MM NOT_NAMED 1938-10-10 00:00:00 NR 19.9244 129.207 main 743 736 __________P___ -1 19.9244 129.207 2 4 310
1938279N12141 1938 55 WP MM NOT_NAMED 1938-10-10 03:00:00 NR 20.0762 129.048 main 728 721 __________P___ -1 20.0762 129.048 2 5 321
1938279N12141 1938 55 WP MM NOT_NAMED 1938-10-10 06:00:00 NR 20.3149 128.865 main 724 704 __________P___ -1 20.3149 128.865 2 8 326
1938279N12141 1938 55 WP MM NOT_NAMED 1938-10-10 09:00:00 NR 20.7000 128.600 main 708 692 __________O___ -1 20.7000 128.600 2 13 327
1938279N12141 1938 55 WP MM NOT_NAMED 1938-10-10 12:00:00 NR 21.3655 128.129 main 692 640 __________P___ -1 21.3655 128.129 2 18 327
1938279N12141 1938 55 WP MM NOT_NAMED 1938-10-10 15:00:00 NR 22.1647 127.572 main 635 548 __________P___ -1 22.1647 127.572 2 19 327
1938279N12141 1938 55 WP MM NOT_NAMED 1938-10-10 18:00:00 NR 22.9814 127.004 main 545 475 __________P___ -1 22.9814 127.004 2 18 327
1938279N12141 1938 55 WP MM NOT_NAMED 1938-10-10 21:00:00 NR 23.7000 126.500 main 475 436 __________O___ -1 23.7000 126.500 2 14 326
1938279N12141 1938 55 WP MM NOT_NAMED 1938-10-11 00:00:00 NR 24.1477 126.151 main 436 397 __________P___ -1 24.1477 126.151 2 10 325
1938279N12141 1938 55 WP MM NOT_NAMED 1938-10-11 03:00:00 NR 24.4887 125.884 main 397 373 __________P___ -1 24.4887 125.884 2 8 326
1938279N12141 1938 55 WP MM NOT_NAMED 1938-10-11 06:00:00 NR 24.7855 125.674 main 373 352 __________P___ -1 24.7855 125.674 2 7 330
1938279N12141 1938 55 WP MM NOT_NAMED 1938-10-11 09:00:00 NR 25.1000 125.500 main 352 336 __________O___ -1 25.1000 125.500 2 8 337
1938279N12141 1938 55 WP MM NOT_NAMED 1938-10-11 12:00:00 NR 25.5536 125.309 main 338 330 __________P___ -1 25.5536 125.309 2 10 341
1938279N12141 1938 55 WP MM NOT_NAMED 1938-10-11 15:00:00 NR 26.0298 125.148 main 330 330 __________P___ -1 26.0298 125.148 2 10 344
1938279N12141 1938 55 WP MM NOT_NAMED 1938-10-11 18:00:00 NR 26.4911 125.012 main 343 343 __________P___ -1 26.4911 125.012 2 9 346
1938279N12141 1938 55 WP MM NOT_NAMED 1938-10-11 21:00:00 NR 26.9000 124.900 main 359 337 __________O___ -1 26.9000 124.900 2 7 343
1938279N12141 1938 55 WP MM NOT_NAMED 1938-10-12 00:00:00 NR 27.1952 124.775 main 337 320 __________P___ -1 27.1952 124.775 2 6 340
1938279N12141 1938 55 WP MM NOT_NAMED 1938-10-12 03:00:00 NR 27.4374 124.675 main 320 304 __________P___ -1 27.4374 124.675 2 5 343
1938279N12141 1938 55 WP MM NOT_NAMED 1938-10-12 06:00:00 NR 27.6608 124.613 main 301 292 __________P___ -1 27.6608 124.613 2 5 351
1938279N12141 1938 55 WP MM NOT_NAMED 1938-10-12 09:00:00 NR 27.9000 124.600 main 292 276 __________O___ -1 27.9000 124.600 2 6 0
1938279N12141 1938 55 WP MM NOT_NAMED 1938-10-12 12:00:00 NR 28.2480 124.625 main 276 268 __________P___ -1 28.2480 124.625 2 7 7
1938279N12141 1938 55 WP MM NOT_NAMED 1938-10-12 15:00:00 NR 28.6097 124.702 main 270 268 __________P___ -1 28.6097 124.702 2 7 14
1938279N12141 1938 55 WP MM NOT_NAMED 1938-10-12 18:00:00 NR 28.9417 124.828 main 273 272 __________P___ -1 28.9417 124.828 2 6 24
1938279N12141 1938 55 WP MM NOT_NAMED 1938-10-12 21:00:00 NR 29.2000 125.000 main 290 290 __________O___ -1 29.2000 125.000 2 5 39
1938279N12141 1938 55 WP MM NOT_NAMED 1938-10-13 00:00:00 NR 29.3205 125.175 main 310 310 __________P___ -1 29.3205 125.175 2 4 64
1938279N12141 1938 55 WP MM NOT_NAMED 1938-10-13 03:00:00 NR 29.3668 125.396 main 330 330 __________P___ -1 29.3668 125.396 2 4 82
1938279N12141 1938 55 WP MM NOT_NAMED 1938-10-13 06:00:00 NR 29.3797 125.669 main 358 358 __________P___ -1 29.3797 125.669 2 5 86
1938279N12141 1938 55 WP MM NOT_NAMED 1938-10-13 09:00:00 NR 29.4000 126.000 main 387 387 __________O___ -1 29.4000 126.000 2 7 80
1938279N12141 1938 55 WP MM NOT_NAMED 1938-10-13 12:00:00 NR 29.4946 126.416 main 410 362 __________P___ -1 29.4946 126.416 2 8 75
1938279N12141 1938 55 WP MM NOT_NAMED 1938-10-13 15:00:00 NR 29.6012 126.884 main 362 324 __________P___ -1 29.6012 126.884 2 8 75
1938279N12141 1938 55 WP MM NOT_NAMED 1938-10-13 18:00:00 NR 29.7071 127.360 main 315 277 __________P___ -1 29.7071 127.360 2 8 76
1938279N12141 1938 55 WP MM NOT_NAMED 1938-10-13 21:00:00 NR 29.8000 127.800 main 277 254 __________O___ -1 29.8000 127.800 2 7 78
1938279N12141 1938 55 WP MM NOT_NAMED 1938-10-14 00:00:00 NR 29.8423 128.096 main 254 232 __________P___ -1 29.8423 128.096 2 5 81
1938279N12141 1938 55 WP MM NOT_NAMED 1938-10-14 03:00:00 NR 29.8749 128.357 main 225 210 __________P___ -1 29.8749 128.357 2 5 81
1938279N12141 1938 55 WP MM NOT_NAMED 1938-10-14 06:00:00 NR 29.9202 128.640 main 210 176 __________P___ -1 29.9202 128.640 2 6 77
1938279N12141 1938 55 WP MM NOT_NAMED 1938-10-14 09:00:00 NR 30.0000 129.000 main 176 139 __________O___ -1 30.0000 129.000 2 8 76
1938279N12141 1938 55 WP MM NOT_NAMED 1938-10-14 12:00:00 NR 30.1021 129.483 main 139 111 __________P___ -1 30.1021 129.483 2 9 75
1938279N12141 1938 55 WP MM NOT_NAMED 1938-10-14 15:00:00 NR 30.2442 130.053 main 106 66 __________P___ -1 30.2442 130.053 2 11 72
1938279N12141 1938 55 WP MM NOT_NAMED 1938-10-14 18:00:00 NR 30.4391 130.697 main 66 53 __________P___ -1 30.4391 130.697 2 12 69
1938279N12141 1938 55 WP MM NOT_NAMED 1938-10-14 21:00:00 NR 30.7000 131.400 main 72 62 __________O___ -1 30.7000 131.400 2 14 61
1938279N12141 1938 55 WP MM NOT_NAMED 1938-10-15 00:00:00 NR 31.1108 132.101 main 74 74 __________P___ -1 31.1108 132.101 2 15 55
1938279N12141 1938 55 WP MM NOT_NAMED 1938-10-15 03:00:00 NR 31.5722 132.864 main 123 96 __________P___ -1 31.5722 132.864 2 16 57
1938279N12141 1938 55 WP MM NOT_NAMED 1938-10-15 06:00:00 NR 31.9976 133.696 main 101 100 __________P___ -1 31.9976 133.696 2 16 64
1938279N12141 1938 55 WP MM NOT_NAMED 1938-10-15 09:00:00 NR 32.3000 134.600 main 107 107 __________O___ -1 32.3000 134.600 2 17 77
1938279N12141 1938 55 WP MM NOT_NAMED 1938-10-15 12:00:00 NR 32.3861 135.659 main 111 111 __________P___ -1 32.3861 135.659 2 18 89
1938279N12141 1938 55 WP MM NOT_NAMED 1938-10-15 15:00:00 NR 32.3363 136.762 main 154 154 __________P___ -1 32.3363 136.762 2 18 96
1938279N12141 1938 55 WP MM NOT_NAMED 1938-10-15 18:00:00 NR 32.1925 137.808 main 228 228 __________P___ -1 32.1925 137.808 2 17 102
1938279N12141 1938 55 WP MM NOT_NAMED 1938-10-15 21:00:00 NR 32.0000 138.700 main 290 289 __________O___ -1 32.0000 138.700 2 12 107
1938279N12141 1938 55 WP MM NOT_NAMED 1938-10-16 00:00:00 NR 31.8430 139.194 main 314 314 __________P___ -1 31.8430 139.194 2 8 116
1938279N12141 1938 55 WP MM NOT_NAMED 1938-10-16 03:00:00 NR 31.6545 139.550 main 329 329 __________P___ -1 31.6545 139.550 2 7 123
1938279N12141 1938 55 WP MM NOT_NAMED 1938-10-16 06:00:00 NR 31.4393 139.931 main 371 371 __________P___ -1 31.4393 139.931 2 9 119
1938279N12141 1938 55 WP MM NOT_NAMED 1938-10-16 09:00:00 NR 31.2000 140.500 main 410 410 __________O___ -1 31.2000 140.500 2 13 112
1938279N12141 1938 55 WP MM NOT_NAMED 1938-10-16 12:00:00 NR 30.9363 141.377 main 467 467 __________P___ -1 30.9363 141.377 2 18 108
1938279N12141 1938 55 WP MM NOT_NAMED 1938-10-16 15:00:00 NR 30.6475 142.513 main 537 537 __________P___ -1 30.6475 142.513 2 22 106
1938279N12141 1938 55 WP MM NOT_NAMED 1938-10-16 18:00:00 NR 30.3342 143.818 main 629 629 __________P___ -1 30.3342 143.818 2 24 106
1938279N12141 1938 55 WP MM NOT_NAMED 1938-10-16 21:00:00 NR 30.0000 145.200 main 733 __________O___ -1 30.0000 145.200 2 25 106

Digital Typhoon Data and Search

About IBTrACS Database

This database is a web-friendly format of International Best Track Archive for Climate Stewardship (IBTrACS), a global best track data archive curated by NOAA dating back to 1842.

Updated: 2021-10-08